sensor_id;sensor_type;location;lat;lon;timestamp;temperature;humidity
3075;DHT22;1548;51.716;8.748;2022-09-13T00:00:38;18.50;70.60
3075;DHT22;1548;51.716;8.748;2022-09-13T00:03:04;18.60;70.80
3075;DHT22;1548;51.716;8.748;2022-09-13T00:05:29;18.70;70.80
3075;DHT22;1548;51.716;8.748;2022-09-13T00:07:56;18.50;70.70
3075;DHT22;1548;51.716;8.748;2022-09-13T00:10:22;18.40;70.90
3075;DHT22;1548;51.716;8.748;2022-09-13T00:12:48;18.40;71.10
3075;DHT22;1548;51.716;8.748;2022-09-13T00:15:14;18.40;71.20
3075;DHT22;1548;51.716;8.748;2022-09-13T00:17:40;18.40;71.10
3075;DHT22;1548;51.716;8.748;2022-09-13T00:20:06;18.50;71.10
3075;DHT22;1548;51.716;8.748;2022-09-13T00:22:33;18.50;70.90
3075;DHT22;1548;51.716;8.748;2022-09-13T00:24:59;18.40;71.20
3075;DHT22;1548;51.716;8.748;2022-09-13T00:27:24;18.50;70.90
3075;DHT22;1548;51.716;8.748;2022-09-13T00:29:50;18.60;70.90
3075;DHT22;1548;51.716;8.748;2022-09-13T00:32:16;18.60;70.90
3075;DHT22;1548;51.716;8.748;2022-09-13T00:34:42;18.50;70.90
3075;DHT22;1548;51.716;8.748;2022-09-13T00:37:07;18.60;70.90
3075;DHT22;1548;51.716;8.748;2022-09-13T00:39:33;18.70;70.60
3075;DHT22;1548;51.716;8.748;2022-09-13T00:41:59;18.60;70.70
3075;DHT22;1548;51.716;8.748;2022-09-13T00:44:54;18.70;70.70
3075;DHT22;1548;51.716;8.748;2022-09-13T00:49:56;18.90;70.60
3075;DHT22;1548;51.716;8.748;2022-09-13T00:52:25;18.90;70.60
3075;DHT22;1548;51.716;8.748;2022-09-13T00:54:58;18.90;70.40
3075;DHT22;1548;51.716;8.748;2022-09-13T00:57:25;19.10;70.30
3075;DHT22;1548;51.716;8.748;2022-09-13T00:59:57;19.00;70.10
3075;DHT22;1548;51.716;8.748;2022-09-13T01:02:25;18.90;70.20
3075;DHT22;1548;51.716;8.748;2022-09-13T01:04:51;18.80;70.50
3075;DHT22;1548;51.716;8.748;2022-09-13T01:07:17;18.80;70.50
3075;DHT22;1548;51.716;8.748;2022-09-13T01:09:44;18.80;70.60
3075;DHT22;1548;51.716;8.748;2022-09-13T01:12:24;19.00;70.40
3075;DHT22;1548;51.716;8.748;2022-09-13T01:14:52;18.90;70.40
3075;DHT22;1548;51.716;8.748;2022-09-13T01:17:19;18.90;70.40
3075;DHT22;1548;51.716;8.748;2022-09-13T01:19:45;18.90;70.60
3075;DHT22;1548;51.716;8.748;2022-09-13T01:36:23;18.90;70.70
3075;DHT22;1548;51.716;8.748;2022-09-13T01:39:09;18.90;70.60
3075;DHT22;1548;51.716;8.748;2022-09-13T01:42:02;18.90;70.50
3075;DHT22;1548;51.716;8.748;2022-09-13T01:47:23;19.00;70.40
3075;DHT22;1548;51.716;8.748;2022-09-13T01:50:14;19.00;70.60
3075;DHT22;1548;51.716;8.748;2022-09-13T01:55:33;19.20;70.20
3075;DHT22;1548;51.716;8.748;2022-09-13T02:00:52;19.20;70.00
3075;DHT22;1548;51.716;8.748;2022-09-13T02:03:30;19.30;69.80
3075;DHT22;1548;51.716;8.748;2022-09-13T02:06:02;19.40;69.80
3075;DHT22;1548;51.716;8.748;2022-09-13T02:08:39;19.30;69.90
3075;DHT22;1548;51.716;8.748;2022-09-13T02:11:23;19.40;70.00
3075;DHT22;1548;51.716;8.748;2022-09-13T02:14:02;19.60;69.40
3075;DHT22;1548;51.716;8.748;2022-09-13T02:19:25;19.60;69.30
3075;DHT22;1548;51.716;8.748;2022-09-13T02:21:55;19.70;69.40
3075;DHT22;1548;51.716;8.748;2022-09-13T02:24:30;19.70;69.30
3075;DHT22;1548;51.716;8.748;2022-09-13T02:27:00;19.80;69.10
3075;DHT22;1548;51.716;8.748;2022-09-13T02:29:28;19.80;69.20
3075;DHT22;1548;51.716;8.748;2022-09-13T02:32:25;19.80;69.10
3075;DHT22;1548;51.716;8.748;2022-09-13T02:35:03;19.70;69.20
3075;DHT22;1548;51.716;8.748;2022-09-13T02:37:32;19.60;69.30
3075;DHT22;1548;51.716;8.748;2022-09-13T02:40:04;19.70;69.50
3075;DHT22;1548;51.716;8.748;2022-09-13T02:42:40;19.70;69.20
3075;DHT22;1548;51.716;8.748;2022-09-13T02:45:11;19.70;69.50
3075;DHT22;1548;51.716;8.748;2022-09-13T02:47:55;19.80;69.20
3075;DHT22;1548;51.716;8.748;2022-09-13T02:53:24;19.90;69.00
3075;DHT22;1548;51.716;8.748;2022-09-13T02:56:06;19.80;69.00
3075;DHT22;1548;51.716;8.748;2022-09-13T03:01:09;19.70;69.50
3075;DHT22;1548;51.716;8.748;2022-09-13T03:03:35;19.80;69.40
3075;DHT22;1548;51.716;8.748;2022-09-13T03:06:00;19.80;69.20
3075;DHT22;1548;51.716;8.748;2022-09-13T03:08:27;19.80;69.30
3075;DHT22;1548;51.716;8.748;2022-09-13T03:11:07;19.80;69.30
3075;DHT22;1548;51.716;8.748;2022-09-13T03:30:18;19.70;69.90
3075;DHT22;1548;51.716;8.748;2022-09-13T03:32:58;19.70;70.00
3075;DHT22;1548;51.716;8.748;2022-09-13T03:38:15;19.70;70.50
3075;DHT22;1548;51.716;8.748;2022-09-13T03:40:52;19.60;70.50
3075;DHT22;1548;51.716;8.748;2022-09-13T03:45:50;19.80;70.30
3075;DHT22;1548;51.716;8.748;2022-09-13T03:48:17;19.60;70.50
3075;DHT22;1548;51.716;8.748;2022-09-13T03:50:45;19.50;70.80
3075;DHT22;1548;51.716;8.748;2022-09-13T03:53:14;19.50;70.80
3075;DHT22;1548;51.716;8.748;2022-09-13T03:55:42;19.40;71.00
3075;DHT22;1548;51.716;8.748;2022-09-13T03:58:13;19.30;71.30
3075;DHT22;1548;51.716;8.748;2022-09-13T04:00:38;19.30;71.70
3075;DHT22;1548;51.716;8.748;2022-09-13T04:03:06;19.10;72.00
3075;DHT22;1548;51.716;8.748;2022-09-13T04:05:32;19.10;72.20
3075;DHT22;1548;51.716;8.748;2022-09-13T04:08:02;18.90;72.40
3075;DHT22;1548;51.716;8.748;2022-09-13T04:10:29;19.00;72.50
3075;DHT22;1548;51.716;8.748;2022-09-13T04:12:56;19.00;72.40
3075;DHT22;1548;51.716;8.748;2022-09-13T04:15:22;19.00;72.30
3075;DHT22;1548;51.716;8.748;2022-09-13T04:17:49;18.90;72.50
3075;DHT22;1548;51.716;8.748;2022-09-13T04:20:14;18.90;72.60
3075;DHT22;1548;51.716;8.748;2022-09-13T04:22:40;19.00;72.60
3075;DHT22;1548;51.716;8.748;2022-09-13T04:25:06;19.10;72.50
3075;DHT22;1548;51.716;8.748;2022-09-13T04:27:32;19.00;72.40
3075;DHT22;1548;51.716;8.748;2022-09-13T04:30:00;19.00;72.50
3075;DHT22;1548;51.716;8.748;2022-09-13T04:32:26;19.10;72.50
3075;DHT22;1548;51.716;8.748;2022-09-13T04:34:52;19.10;72.30
3075;DHT22;1548;51.716;8.748;2022-09-13T04:37:18;19.10;72.30
3075;DHT22;1548;51.716;8.748;2022-09-13T04:39:43;19.10;72.30
3075;DHT22;1548;51.716;8.748;2022-09-13T04:42:09;19.20;72.20
3075;DHT22;1548;51.716;8.748;2022-09-13T04:44:35;19.40;71.90
3075;DHT22;1548;51.716;8.748;2022-09-13T04:47:01;19.30;71.80
3075;DHT22;1548;51.716;8.748;2022-09-13T04:49:27;19.20;72.20
3075;DHT22;1548;51.716;8.748;2022-09-13T04:51:53;19.20;72.20
3075;DHT22;1548;51.716;8.748;2022-09-13T04:54:18;19.20;72.20
3075;DHT22;1548;51.716;8.748;2022-09-13T04:56:44;19.20;72.20
3075;DHT22;1548;51.716;8.748;2022-09-13T04:59:10;19.20;72.40
3075;DHT22;1548;51.716;8.748;2022-09-13T05:01:36;19.30;72.40
3075;DHT22;1548;51.716;8.748;2022-09-13T05:04:03;19.40;72.20
3075;DHT22;1548;51.716;8.748;2022-09-13T05:06:28;19.50;72.10
3075;DHT22;1548;51.716;8.748;2022-09-13T05:08:55;19.50;72.00
3075;DHT22;1548;51.716;8.748;2022-09-13T05:11:22;19.50;72.00
3075;DHT22;1548;51.716;8.748;2022-09-13T05:13:52;19.50;72.00
3075;DHT22;1548;51.716;8.748;2022-09-13T05:16:20;19.40;72.00
3075;DHT22;1548;51.716;8.748;2022-09-13T05:18:46;19.40;72.10
3075;DHT22;1548;51.716;8.748;2022-09-13T05:21:11;19.50;72.00
3075;DHT22;1548;51.716;8.748;2022-09-13T05:23:37;19.50;72.00
3075;DHT22;1548;51.716;8.748;2022-09-13T05:26:04;19.50;71.90
3075;DHT22;1548;51.716;8.748;2022-09-13T05:28:33;19.50;71.90
3075;DHT22;1548;51.716;8.748;2022-09-13T05:31:14;19.60;71.90
3075;DHT22;1548;51.716;8.748;2022-09-13T05:33:40;19.60;71.60
3075;DHT22;1548;51.716;8.748;2022-09-13T05:36:06;19.50;71.80
3075;DHT22;1548;51.716;8.748;2022-09-13T05:38:32;19.50;71.70
3075;DHT22;1548;51.716;8.748;2022-09-13T05:41:00;19.70;71.70
3075;DHT22;1548;51.716;8.748;2022-09-13T05:43:28;19.70;71.30
3075;DHT22;1548;51.716;8.748;2022-09-13T05:46:05;19.70;71.50
3075;DHT22;1548;51.716;8.748;2022-09-13T05:48:32;19.80;71.50
3075;DHT22;1548;51.716;8.748;2022-09-13T05:51:24;19.90;70.90
3075;DHT22;1548;51.716;8.748;2022-09-13T05:53:51;19.90;70.70
3075;DHT22;1548;51.716;8.748;2022-09-13T05:56:25;19.90;70.90
3075;DHT22;1548;51.716;8.748;2022-09-13T05:58:52;19.90;70.80
3075;DHT22;1548;51.716;8.748;2022-09-13T06:01:20;19.90;70.50
3075;DHT22;1548;51.716;8.748;2022-09-13T06:03:47;19.90;70.50
3075;DHT22;1548;51.716;8.748;2022-09-13T06:06:13;20.00;70.60
3075;DHT22;1548;51.716;8.748;2022-09-13T06:08:39;20.00;70.60
3075;DHT22;1548;51.716;8.748;2022-09-13T06:11:07;19.90;71.30
3075;DHT22;1548;51.716;8.748;2022-09-13T06:13:33;19.90;71.60
3075;DHT22;1548;51.716;8.748;2022-09-13T06:16:01;19.90;71.70
3075;DHT22;1548;51.716;8.748;2022-09-13T06:18:27;20.00;71.50
3075;DHT22;1548;51.716;8.748;2022-09-13T06:21:11;20.10;71.70
3075;DHT22;1548;51.716;8.748;2022-09-13T06:23:42;20.10;71.80
3075;DHT22;1548;51.716;8.748;2022-09-13T06:26:10;20.10;72.10
3075;DHT22;1548;51.716;8.748;2022-09-13T06:28:36;20.20;72.10
3075;DHT22;1548;51.716;8.748;2022-09-13T06:31:07;19.80;72.60
3075;DHT22;1548;51.716;8.748;2022-09-13T06:33:35;19.70;73.20
3075;DHT22;1548;51.716;8.748;2022-09-13T06:36:02;19.60;73.20
3075;DHT22;1548;51.716;8.748;2022-09-13T06:38:28;19.70;73.30
3075;DHT22;1548;51.716;8.748;2022-09-13T06:41:08;19.80;73.20
3075;DHT22;1548;51.716;8.748;2022-09-13T06:43:34;19.80;73.30
3075;DHT22;1548;51.716;8.748;2022-09-13T06:46:02;19.80;73.10
3075;DHT22;1548;51.716;8.748;2022-09-13T06:48:33;19.90;72.90
3075;DHT22;1548;51.716;8.748;2022-09-13T06:51:01;19.90;72.70
3075;DHT22;1548;51.716;8.748;2022-09-13T06:53:27;19.90;72.60
3075;DHT22;1548;51.716;8.748;2022-09-13T06:56:01;20.10;72.50
3075;DHT22;1548;51.716;8.748;2022-09-13T06:58:28;20.20;72.50
3075;DHT22;1548;51.716;8.748;2022-09-13T07:01:03;20.10;72.50
3075;DHT22;1548;51.716;8.748;2022-09-13T07:03:29;20.10;72.40
3075;DHT22;1548;51.716;8.748;2022-09-13T07:05:54;20.10;72.50
3075;DHT22;1548;51.716;8.748;2022-09-13T07:08:20;20.20;72.20
3075;DHT22;1548;51.716;8.748;2022-09-13T07:10:45;20.20;72.20
3075;DHT22;1548;51.716;8.748;2022-09-13T07:13:11;20.30;71.90
3075;DHT22;1548;51.716;8.748;2022-09-13T07:15:36;20.30;71.70
3075;DHT22;1548;51.716;8.748;2022-09-13T07:18:02;20.40;71.30
3075;DHT22;1548;51.716;8.748;2022-09-13T07:20:27;20.50;71.20
3075;DHT22;1548;51.716;8.748;2022-09-13T07:22:53;20.50;70.80
3075;DHT22;1548;51.716;8.748;2022-09-13T07:25:18;20.40;70.50
3075;DHT22;1548;51.716;8.748;2022-09-13T07:27:44;20.30;70.90
3075;DHT22;1548;51.716;8.748;2022-09-13T07:30:10;20.30;70.80
3075;DHT22;1548;51.716;8.748;2022-09-13T07:32:35;20.40;70.90
3075;DHT22;1548;51.716;8.748;2022-09-13T07:35:01;20.40;71.00
3075;DHT22;1548;51.716;8.748;2022-09-13T07:37:27;20.60;70.50
3075;DHT22;1548;51.716;8.748;2022-09-13T07:39:53;20.70;70.50
3075;DHT22;1548;51.716;8.748;2022-09-13T07:42:18;20.60;70.50
3075;DHT22;1548;51.716;8.748;2022-09-13T07:44:44;20.50;70.80
3075;DHT22;1548;51.716;8.748;2022-09-13T07:47:09;20.50;70.90
3075;DHT22;1548;51.716;8.748;2022-09-13T07:49:35;20.70;70.70
3075;DHT22;1548;51.716;8.748;2022-09-13T07:52:01;20.60;70.50
3075;DHT22;1548;51.716;8.748;2022-09-13T07:54:26;20.50;70.60
3075;DHT22;1548;51.716;8.748;2022-09-13T07:56:52;20.70;70.80
3075;DHT22;1548;51.716;8.748;2022-09-13T07:59:18;20.80;70.60
3075;DHT22;1548;51.716;8.748;2022-09-13T08:01:48;20.70;70.60
3075;DHT22;1548;51.716;8.748;2022-09-13T08:04:16;20.60;70.70
3075;DHT22;1548;51.716;8.748;2022-09-13T08:06:43;20.60;71.00
3075;DHT22;1548;51.716;8.748;2022-09-13T08:09:09;20.60;71.00
3075;DHT22;1548;51.716;8.748;2022-09-13T08:11:43;20.80;70.80
3075;DHT22;1548;51.716;8.748;2022-09-13T08:14:11;21.00;70.50
3075;DHT22;1548;51.716;8.748;2022-09-13T08:16:38;21.20;70.40
3075;DHT22;1548;51.716;8.748;2022-09-13T08:19:04;21.10;70.30
3075;DHT22;1548;51.716;8.748;2022-09-13T08:21:33;21.10;69.90
3075;DHT22;1548;51.716;8.748;2022-09-13T08:23:59;21.20;70.10
3075;DHT22;1548;51.716;8.748;2022-09-13T08:26:26;21.20;69.80
3075;DHT22;1548;51.716;8.748;2022-09-13T08:28:56;21.30;70.10
3075;DHT22;1548;51.716;8.748;2022-09-13T08:31:22;21.30;69.50
3075;DHT22;1548;51.716;8.748;2022-09-13T08:33:48;20.90;70.10
3075;DHT22;1548;51.716;8.748;2022-09-13T08:36:14;21.10;70.20
3075;DHT22;1548;51.716;8.748;2022-09-13T08:38:50;21.20;70.10
3075;DHT22;1548;51.716;8.748;2022-09-13T08:44:30;21.50;69.20
3075;DHT22;1548;51.716;8.748;2022-09-13T08:47:23;21.50;68.90
3075;DHT22;1548;51.716;8.748;2022-09-13T08:50:05;21.40;69.50
3075;DHT22;1548;51.716;8.748;2022-09-13T09:01:06;21.80;69.10
3075;DHT22;1548;51.716;8.748;2022-09-13T09:03:49;22.10;68.80
3075;DHT22;1548;51.716;8.748;2022-09-13T09:06:18;22.20;68.30
3075;DHT22;1548;51.716;8.748;2022-09-13T09:08:59;22.10;68.50
3075;DHT22;1548;51.716;8.748;2022-09-13T09:11:31;22.00;69.00
3075;DHT22;1548;51.716;8.748;2022-09-13T09:16:53;22.00;69.30
3075;DHT22;1548;51.716;8.748;2022-09-13T09:19:32;22.00;69.10
3075;DHT22;1548;51.716;8.748;2022-09-13T09:22:02;22.30;68.80
3075;DHT22;1548;51.716;8.748;2022-09-13T09:24:33;22.40;68.40
3075;DHT22;1548;51.716;8.748;2022-09-13T09:27:01;22.50;68.30
3075;DHT22;1548;51.716;8.748;2022-09-13T09:29:31;22.40;68.50
3075;DHT22;1548;51.716;8.748;2022-09-13T09:32:04;22.30;68.60
3075;DHT22;1548;51.716;8.748;2022-09-13T09:34:41;22.30;68.60
3075;DHT22;1548;51.716;8.748;2022-09-13T09:37:27;22.50;68.50
3075;DHT22;1548;51.716;8.748;2022-09-13T09:39:58;22.50;68.30
3075;DHT22;1548;51.716;8.748;2022-09-13T09:42:28;22.40;68.70
3075;DHT22;1548;51.716;8.748;2022-09-13T09:45:02;22.50;68.30
3075;DHT22;1548;51.716;8.748;2022-09-13T09:47:33;22.40;68.50
3075;DHT22;1548;51.716;8.748;2022-09-13T09:50:35;22.40;68.60
3075;DHT22;1548;51.716;8.748;2022-09-13T09:55:45;22.30;68.90
3075;DHT22;1548;51.716;8.748;2022-09-13T09:58:13;22.30;68.90
3075;DHT22;1548;51.716;8.748;2022-09-13T10:00:56;22.40;68.70
3075;DHT22;1548;51.716;8.748;2022-09-13T10:03:30;22.50;68.80
3075;DHT22;1548;51.716;8.748;2022-09-13T10:06:10;22.70;68.60
3075;DHT22;1548;51.716;8.748;2022-09-13T10:08:40;22.70;68.30
3075;DHT22;1548;51.716;8.748;2022-09-13T10:11:06;22.60;68.80
3075;DHT22;1548;51.716;8.748;2022-09-13T10:13:33;22.60;68.80
3075;DHT22;1548;51.716;8.748;2022-09-13T10:16:04;22.60;68.90
3075;DHT22;1548;51.716;8.748;2022-09-13T10:18:35;22.90;68.70
3075;DHT22;1548;51.716;8.748;2022-09-13T10:21:23;23.10;67.70
3075;DHT22;1548;51.716;8.748;2022-09-13T10:23:50;22.90;67.80
3075;DHT22;1548;51.716;8.748;2022-09-13T10:26:19;22.90;68.10
3075;DHT22;1548;51.716;8.748;2022-09-13T10:29:05;22.70;68.30
3075;DHT22;1548;51.716;8.748;2022-09-13T10:31:36;22.80;68.60
3075;DHT22;1548;51.716;8.748;2022-09-13T10:34:12;22.80;68.40
3075;DHT22;1548;51.716;8.748;2022-09-13T10:36:53;22.90;68.30
3075;DHT22;1548;51.716;8.748;2022-09-13T10:39:22;22.80;68.40
3075;DHT22;1548;51.716;8.748;2022-09-13T10:44:44;23.20;68.30
3075;DHT22;1548;51.716;8.748;2022-09-13T10:47:17;23.40;67.70
3075;DHT22;1548;51.716;8.748;2022-09-13T10:49:48;23.30;67.80
3075;DHT22;1548;51.716;8.748;2022-09-13T10:54:52;23.20;68.30
3075;DHT22;1548;51.716;8.748;2022-09-13T10:57:33;23.30;68.20
3075;DHT22;1548;51.716;8.748;2022-09-13T10:59:59;23.40;68.00
3075;DHT22;1548;51.716;8.748;2022-09-13T11:05:24;23.60;67.60
3075;DHT22;1548;51.716;8.748;2022-09-13T11:10:48;23.80;67.70
3075;DHT22;1548;51.716;8.748;2022-09-13T11:24:34;23.80;67.40
3075;DHT22;1548;51.716;8.748;2022-09-13T11:27:11;23.70;67.90
3075;DHT22;1548;51.716;8.748;2022-09-13T11:34:52;24.00;67.90
3075;DHT22;1548;51.716;8.748;2022-09-13T11:40:27;24.10;67.70
3075;DHT22;1548;51.716;8.748;2022-09-13T11:45:27;23.90;68.00
3075;DHT22;1548;51.716;8.748;2022-09-13T11:53:52;23.80;68.00
3075;DHT22;1548;51.716;8.748;2022-09-13T11:56:26;23.90;68.30
3075;DHT22;1548;51.716;8.748;2022-09-13T12:01:51;23.90;68.00
3075;DHT22;1548;51.716;8.748;2022-09-13T12:04:26;23.90;68.40
3075;DHT22;1548;51.716;8.748;2022-09-13T12:07:00;23.90;68.60
3075;DHT22;1548;51.716;8.748;2022-09-13T12:09:33;23.60;68.80
3075;DHT22;1548;51.716;8.748;2022-09-13T12:12:10;23.50;69.00
3075;DHT22;1548;51.716;8.748;2022-09-13T12:14:51;23.50;69.30
3075;DHT22;1548;51.716;8.748;2022-09-13T12:17:30;23.50;69.60
3075;DHT22;1548;51.716;8.748;2022-09-13T12:19:59;23.30;70.00
3075;DHT22;1548;51.716;8.748;2022-09-13T12:22:29;23.30;70.20
3075;DHT22;1548;51.716;8.748;2022-09-13T12:25:04;23.30;70.30
3075;DHT22;1548;51.716;8.748;2022-09-13T12:28:02;23.50;70.10
3075;DHT22;1548;51.716;8.748;2022-09-13T12:30:46;23.60;70.20
3075;DHT22;1548;51.716;8.748;2022-09-13T12:33:16;23.70;70.00
3075;DHT22;1548;51.716;8.748;2022-09-13T12:36:40;23.80;70.00
3075;DHT22;1548;51.716;8.748;2022-09-13T12:39:00;23.90;69.90
3075;DHT22;1548;51.716;8.748;2022-09-13T13:01:47;24.30;69.50
3075;DHT22;1548;51.716;8.748;2022-09-13T13:04:21;24.20;69.70
3075;DHT22;1548;51.716;8.748;2022-09-13T13:06:58;24.20;69.80
3075;DHT22;1548;51.716;8.748;2022-09-13T13:09:44;24.00;70.10
3075;DHT22;1548;51.716;8.748;2022-09-13T13:12:23;23.90;70.20
3075;DHT22;1548;51.716;8.748;2022-09-13T13:14:50;23.80;70.50
3075;DHT22;1548;51.716;8.748;2022-09-13T13:26:00;23.40;71.10
3075;DHT22;1548;51.716;8.748;2022-09-13T13:34:02;23.40;71.30
3075;DHT22;1548;51.716;8.748;2022-09-13T13:36:51;23.40;71.20
3075;DHT22;1548;51.716;8.748;2022-09-13T13:46:53;23.00;71.80
3075;DHT22;1548;51.716;8.748;2022-09-13T14:16:55;23.30;71.70
3075;DHT22;1548;51.716;8.748;2022-09-13T14:19:26;23.60;71.40
3075;DHT22;1548;51.716;8.748;2022-09-13T14:22:10;23.90;70.60
3075;DHT22;1548;51.716;8.748;2022-09-13T14:24:42;24.00;70.60
3075;DHT22;1548;51.716;8.748;2022-09-13T14:27:18;24.00;70.60
3075;DHT22;1548;51.716;8.748;2022-09-13T14:29:51;24.00;70.60
3075;DHT22;1548;51.716;8.748;2022-09-13T14:32:20;24.20;70.40
3075;DHT22;1548;51.716;8.748;2022-09-13T14:34:58;24.20;70.30
3075;DHT22;1548;51.716;8.748;2022-09-13T14:37:31;24.00;70.60
3075;DHT22;1548;51.716;8.748;2022-09-13T14:39:59;24.00;70.90
3075;DHT22;1548;51.716;8.748;2022-09-13T14:42:36;24.00;70.60
3075;DHT22;1548;51.716;8.748;2022-09-13T14:45:01;24.00;70.80
3075;DHT22;1548;51.716;8.748;2022-09-13T14:47:31;23.90;70.70
3075;DHT22;1548;51.716;8.748;2022-09-13T14:50:03;23.80;71.00
3075;DHT22;1548;51.716;8.748;2022-09-13T14:52:37;23.80;70.80
3075;DHT22;1548;51.716;8.748;2022-09-13T14:55:10;23.60;71.30
3075;DHT22;1548;51.716;8.748;2022-09-13T14:57:47;23.50;71.60
3075;DHT22;1548;51.716;8.748;2022-09-13T15:00:16;23.60;71.30
3075;DHT22;1548;51.716;8.748;2022-09-13T15:02:58;23.60;71.20
3075;DHT22;1548;51.716;8.748;2022-09-13T15:05:30;23.50;71.40
3075;DHT22;1548;51.716;8.748;2022-09-13T15:07:56;23.40;71.40
3075;DHT22;1548;51.716;8.748;2022-09-13T15:10:44;23.50;71.50
3075;DHT22;1548;51.716;8.748;2022-09-13T15:13:10;23.70;71.50
3075;DHT22;1548;51.716;8.748;2022-09-13T15:15:45;23.90;71.20
3075;DHT22;1548;51.716;8.748;2022-09-13T15:31:05;23.50;71.50
3075;DHT22;1548;51.716;8.748;2022-09-13T15:33:33;23.40;71.80
3075;DHT22;1548;51.716;8.748;2022-09-13T15:41:32;23.10;72.20
3075;DHT22;1548;51.716;8.748;2022-09-13T15:43:59;23.10;72.20
3075;DHT22;1548;51.716;8.748;2022-09-13T15:46:25;23.10;72.20
3075;DHT22;1548;51.716;8.748;2022-09-13T15:48:53;23.00;72.30
3075;DHT22;1548;51.716;8.748;2022-09-13T15:51:19;22.90;72.50
3075;DHT22;1548;51.716;8.748;2022-09-13T15:53:45;22.80;72.60
3075;DHT22;1548;51.716;8.748;2022-09-13T15:56:27;22.70;72.60
3075;DHT22;1548;51.716;8.748;2022-09-13T15:58:55;22.70;72.70
3075;DHT22;1548;51.716;8.748;2022-09-13T16:01:20;22.80;72.60
3075;DHT22;1548;51.716;8.748;2022-09-13T16:03:46;22.80;72.50
3075;DHT22;1548;51.716;8.748;2022-09-13T16:06:12;23.00;72.50
3075;DHT22;1548;51.716;8.748;2022-09-13T16:08:38;23.20;72.20
3075;DHT22;1548;51.716;8.748;2022-09-13T16:11:04;23.10;72.10
3075;DHT22;1548;51.716;8.748;2022-09-13T16:13:30;23.20;72.20
3075;DHT22;1548;51.716;8.748;2022-09-13T16:15:56;23.20;72.00
3075;DHT22;1548;51.716;8.748;2022-09-13T16:18:22;23.30;72.10
3075;DHT22;1548;51.716;8.748;2022-09-13T16:20:48;23.30;72.00
3075;DHT22;1548;51.716;8.748;2022-09-13T16:23:14;23.20;72.20
3075;DHT22;1548;51.716;8.748;2022-09-13T16:25:40;23.30;71.90
3075;DHT22;1548;51.716;8.748;2022-09-13T16:28:06;23.20;72.00
3075;DHT22;1548;51.716;8.748;2022-09-13T16:30:33;23.20;72.00
3075;DHT22;1548;51.716;8.748;2022-09-13T16:32:59;23.10;72.20
3075;DHT22;1548;51.716;8.748;2022-09-13T16:35:29;23.00;72.20
3075;DHT22;1548;51.716;8.748;2022-09-13T16:37:55;23.00;72.30
3075;DHT22;1548;51.716;8.748;2022-09-13T16:40:21;22.90;72.40
3075;DHT22;1548;51.716;8.748;2022-09-13T16:42:47;22.80;72.60
3075;DHT22;1548;51.716;8.748;2022-09-13T16:45:12;22.70;72.60
3075;DHT22;1548;51.716;8.748;2022-09-13T16:47:38;22.70;72.70
3075;DHT22;1548;51.716;8.748;2022-09-13T16:50:06;22.70;72.90
3075;DHT22;1548;51.716;8.748;2022-09-13T16:52:32;22.60;73.10
3075;DHT22;1548;51.716;8.748;2022-09-13T16:54:58;22.60;73.00
3075;DHT22;1548;51.716;8.748;2022-09-13T16:57:24;22.50;73.00
3075;DHT22;1548;51.716;8.748;2022-09-13T16:59:53;22.50;73.10
3075;DHT22;1548;51.716;8.748;2022-09-13T17:02:23;22.40;73.40
3075;DHT22;1548;51.716;8.748;2022-09-13T17:04:49;22.40;73.10
3075;DHT22;1548;51.716;8.748;2022-09-13T17:07:14;22.30;73.20
3075;DHT22;1548;51.716;8.748;2022-09-13T17:09:40;22.30;73.40
3075;DHT22;1548;51.716;8.748;2022-09-13T17:12:07;22.30;73.30
3075;DHT22;1548;51.716;8.748;2022-09-13T17:14:33;22.10;73.50
3075;DHT22;1548;51.716;8.748;2022-09-13T17:16:59;22.10;73.50
3075;DHT22;1548;51.716;8.748;2022-09-13T17:19:28;22.10;73.50
3075;DHT22;1548;51.716;8.748;2022-09-13T17:22:00;22.00;73.60
3075;DHT22;1548;51.716;8.748;2022-09-13T17:24:27;21.90;73.80
3075;DHT22;1548;51.716;8.748;2022-09-13T17:26:53;21.70;74.10
3075;DHT22;1548;51.716;8.748;2022-09-13T17:29:21;21.70;74.10
3075;DHT22;1548;51.716;8.748;2022-09-13T17:31:48;21.80;74.10
3075;DHT22;1548;51.716;8.748;2022-09-13T17:34:14;21.80;74.00
3075;DHT22;1548;51.716;8.748;2022-09-13T17:36:40;21.80;74.00
3075;DHT22;1548;51.716;8.748;2022-09-13T17:39:06;21.90;73.90
3075;DHT22;1548;51.716;8.748;2022-09-13T17:41:32;21.80;74.00
3075;DHT22;1548;51.716;8.748;2022-09-13T17:43:58;21.80;74.10
3075;DHT22;1548;51.716;8.748;2022-09-13T17:46:26;21.80;74.10
3075;DHT22;1548;51.716;8.748;2022-09-13T17:48:54;21.80;74.00
3075;DHT22;1548;51.716;8.748;2022-09-13T17:51:25;21.70;74.10
3075;DHT22;1548;51.716;8.748;2022-09-13T17:53:53;21.70;74.10
3075;DHT22;1548;51.716;8.748;2022-09-13T17:56:24;21.70;74.10
3075;DHT22;1548;51.716;8.748;2022-09-13T17:58:56;21.80;74.10
3075;DHT22;1548;51.716;8.748;2022-09-13T18:01:22;21.70;74.10
3075;DHT22;1548;51.716;8.748;2022-09-13T18:03:47;21.70;74.20
3075;DHT22;1548;51.716;8.748;2022-09-13T18:06:14;21.70;74.20
3075;DHT22;1548;51.716;8.748;2022-09-13T18:08:40;21.60;74.20
3075;DHT22;1548;51.716;8.748;2022-09-13T18:11:11;21.70;74.00
3075;DHT22;1548;51.716;8.748;2022-09-13T18:13:38;21.80;74.10
3075;DHT22;1548;51.716;8.748;2022-09-13T18:16:09;21.70;74.20
3075;DHT22;1548;51.716;8.748;2022-09-13T18:18:36;21.70;74.20
3075;DHT22;1548;51.716;8.748;2022-09-13T18:21:03;21.60;74.20
3075;DHT22;1548;51.716;8.748;2022-09-13T18:23:29;21.60;74.30
3075;DHT22;1548;51.716;8.748;2022-09-13T18:26:01;21.50;74.40
3075;DHT22;1548;51.716;8.748;2022-09-13T18:28:28;21.40;74.50
3075;DHT22;1548;51.716;8.748;2022-09-13T18:30:54;21.30;74.70
3075;DHT22;1548;51.716;8.748;2022-09-13T18:33:21;21.20;74.60
3075;DHT22;1548;51.716;8.748;2022-09-13T18:36:05;21.20;74.60
3075;DHT22;1548;51.716;8.748;2022-09-13T18:38:36;21.20;74.60
3075;DHT22;1548;51.716;8.748;2022-09-13T18:43:40;21.20;74.60
3075;DHT22;1548;51.716;8.748;2022-09-13T18:46:08;21.20;74.60
3075;DHT22;1548;51.716;8.748;2022-09-13T18:48:37;21.20;74.60
3075;DHT22;1548;51.716;8.748;2022-09-13T18:51:03;21.20;74.50
3075;DHT22;1548;51.716;8.748;2022-09-13T18:53:29;21.20;74.50
3075;DHT22;1548;51.716;8.748;2022-09-13T18:55:59;21.20;74.50
3075;DHT22;1548;51.716;8.748;2022-09-13T18:58:27;21.20;74.50
3075;DHT22;1548;51.716;8.748;2022-09-13T19:01:00;21.10;74.60
3075;DHT22;1548;51.716;8.748;2022-09-13T19:03:26;21.10;74.60
3075;DHT22;1548;51.716;8.748;2022-09-13T19:05:51;21.20;74.60
3075;DHT22;1548;51.716;8.748;2022-09-13T19:08:17;21.10;74.70
3075;DHT22;1548;51.716;8.748;2022-09-13T19:10:43;21.00;74.70
3075;DHT22;1548;51.716;8.748;2022-09-13T19:13:09;21.10;74.70
3075;DHT22;1548;51.716;8.748;2022-09-13T19:15:34;21.00;74.70
3075;DHT22;1548;51.716;8.748;2022-09-13T19:18:00;21.00;74.70
3075;DHT22;1548;51.716;8.748;2022-09-13T19:20:26;21.00;74.70
3075;DHT22;1548;51.716;8.748;2022-09-13T19:22:52;21.00;74.70
3075;DHT22;1548;51.716;8.748;2022-09-13T19:25:18;21.00;74.70
3075;DHT22;1548;51.716;8.748;2022-09-13T19:27:44;20.90;74.70
3075;DHT22;1548;51.716;8.748;2022-09-13T19:30:10;21.00;74.80
3075;DHT22;1548;51.716;8.748;2022-09-13T19:32:37;21.00;74.80
3075;DHT22;1548;51.716;8.748;2022-09-13T19:35:03;21.10;74.70
3075;DHT22;1548;51.716;8.748;2022-09-13T19:37:29;21.10;74.60
3075;DHT22;1548;51.716;8.748;2022-09-13T19:39:56;21.00;74.50
3075;DHT22;1548;51.716;8.748;2022-09-13T19:42:22;20.70;74.50
3075;DHT22;1548;51.716;8.748;2022-09-13T19:44:48;20.60;74.80